TAP87J LPPR-EHAM
Flight info
| Callsign | TAP87J |
|---|---|
| Flight time | 0h 40m |
| Altitude | 38000 |
| Route | TURON P600 ASDEB DCT LOTEE DCT AZFIC DCT ERIGA DCT GODIX DCT PODEM UN873 BAZOS DCT LUMIL DCT BELOB UY873 DENUT |
| Aircraft | A343/H-SDE2E3FGHIJ4J5M1RWXY/LB1D1 |
Departure
| Time | 2026-05-04 08:35 |
|---|---|
| Airport | Francisco de Sá Carneiro Airport (LPPR) |
Arrival
| Time | 2026-05-04 09:15 |
|---|---|
| Airport | Amsterdam Airport Schiphol (EHAM) |
| Time | Latitude | Longitude | Altitude | Speed | Heading |
|---|---|---|---|---|---|
| 2026-05-04 08:17 | 41.23682 | -8.67272 | 262 ft | 0 kts | 83° |
| 2026-05-04 08:21 | 41.23682 | -8.67271 | 262 ft | 0 kts | 83° |
| 2026-05-04 08:24 | 41.23682 | -8.67272 | 262 ft | 0 kts | 83° |
| 2026-05-04 08:27 | 41.23705 | -8.67366 | 261 ft | 0 kts | 140° |
| 2026-05-04 08:31 | 41.23333 | -8.67451 | 270 ft | 4 kts | 253° |
| 2026-05-04 08:33 | 41.23380 | -8.67745 | 279 ft | 38 kts | 346° |
| 2026-05-04 08:33 | 41.23858 | -8.67878 | 259 ft | 100 kts | 348° |
| 2026-05-04 08:35 | 41.43714 | -8.72897 | 3488 ft | 239 kts | 7° |
| 2026-05-04 08:35 | 41.51086 | -8.70639 | 5881 ft | 290 kts | 10° |
| 2026-05-04 08:35 | 41.59230 | -8.68513 | 8917 ft | 305 kts | 8° |
| 2026-05-04 08:35 | 41.68232 | -8.66231 | 10043 ft | 373 kts | 9° |
| 2026-05-04 08:37 | 41.82494 | -8.62474 | 12382 ft | 318 kts | 9° |
| 2026-05-04 08:37 | 41.84645 | -8.61888 | 12644 ft | 317 kts | 9° |
| 2026-05-04 08:37 | 41.86840 | -8.61290 | 12900 ft | 326 kts | 9° |
| 2026-05-04 08:38 | 41.89082 | -8.60679 | 13349 ft | 331 kts | 8° |
| 2026-05-04 08:38 | 41.91350 | -8.60054 | 13820 ft | 334 kts | 9° |
| 2026-05-04 08:38 | 41.93640 | -8.59422 | 14275 ft | 337 kts | 9° |
| 2026-05-04 08:40 | 42.12947 | -8.55379 | 17995 ft | 356 kts | 4° |
| 2026-05-04 08:40 | 42.22867 | -8.53126 | 19602 ft | 367 kts | 8° |
| 2026-05-04 08:40 | 42.32933 | -8.49928 | 21105 ft | 379 kts | 13° |
| 2026-05-04 08:41 | 42.42293 | -8.43215 | 22502 ft | 397 kts | 33° |
| 2026-05-04 08:41 | 42.48079 | -8.36668 | 23425 ft | 407 kts | 39° |
| 2026-05-04 08:41 | 42.59218 | -8.22807 | 25034 ft | 414 kts | 39° |
| 2026-05-04 08:41 | 42.67781 | -8.12176 | 26121 ft | 421 kts | 39° |
| 2026-05-04 08:42 | 42.76528 | -8.01344 | 27068 ft | 430 kts | 39° |
| 2026-05-04 08:42 | 42.85466 | -7.90369 | 28033 ft | 436 kts | 39° |
| 2026-05-04 08:42 | 42.94554 | -7.79218 | 28946 ft | 442 kts | 39° |
| 2026-05-04 08:42 | 43.00764 | -7.71617 | 29631 ft | 444 kts | 39° |
| 2026-05-04 08:43 | 43.09956 | -7.60384 | 30622 ft | 442 kts | 39° |
| 2026-05-04 08:43 | 43.19205 | -7.49223 | 31349 ft | 444 kts | 39° |
| 2026-05-04 08:43 | 43.28663 | -7.37920 | 31636 ft | 457 kts | 39° |
| 2026-05-04 08:43 | 43.38367 | -7.26322 | 31943 ft | 468 kts | 39° |
| 2026-05-04 08:44 | 43.48209 | -7.14638 | 32218 ft | 479 kts | 39° |
| 2026-05-04 08:44 | 43.58462 | -7.02527 | 32537 ft | 490 kts | 39° |
| 2026-05-04 08:46 | 44.34985 | -6.13261 | 33806 ft | 520 kts | 39° |
| 2026-05-04 08:46 | 44.57343 | -5.87554 | 33852 ft | 520 kts | 39° |
| 2026-05-04 08:47 | 44.79687 | -5.61809 | 33900 ft | 519 kts | 39° |
| 2026-05-04 08:47 | 45.02033 | -5.36002 | 33959 ft | 519 kts | 40° |
| 2026-05-04 08:48 | 45.24378 | -5.10120 | 33990 ft | 519 kts | 40° |
| 2026-05-04 08:48 | 45.46708 | -4.84174 | 34037 ft | 518 kts | 40° |
| 2026-05-04 08:49 | 45.69039 | -4.58155 | 34072 ft | 518 kts | 40° |
| 2026-05-04 08:50 | 46.32755 | -3.74850 | 34210 ft | 516 kts | 50° |
| 2026-05-04 08:50 | 46.42236 | -3.59192 | 34204 ft | 518 kts | 50° |
| 2026-05-04 08:51 | 46.61314 | -3.27788 | 34264 ft | 517 kts | 50° |
| 2026-05-04 08:51 | 46.80461 | -2.96151 | 34264 ft | 521 kts | 50° |
| 2026-05-04 08:52 | 46.99660 | -2.64254 | 34304 ft | 521 kts | 50° |
| 2026-05-04 08:52 | 47.18784 | -2.32248 | 34349 ft | 521 kts | 50° |
| 2026-05-04 08:54 | 47.95038 | -1.03602 | 34502 ft | 520 kts | 51° |
| 2026-05-04 08:55 | 48.14026 | -0.71081 | 34526 ft | 518 kts | 51° |
| 2026-05-04 08:55 | 48.32992 | -0.38517 | 34593 ft | 518 kts | 51° |
| 2026-05-04 08:57 | 48.99288 | 0.76525 | 34756 ft | 517 kts | 51° |
| 2026-05-04 09:01 | 50.44675 | 2.95053 | 28670 ft | 500 kts | 31° |
| 2026-05-04 09:01 | 50.56655 | 3.05620 | 27443 ft | 487 kts | 30° |
| 2026-05-04 09:01 | 50.68288 | 3.16017 | 25831 ft | 473 kts | 30° |
| 2026-05-04 09:01 | 50.79556 | 3.26188 | 24214 ft | 460 kts | 30° |
| 2026-05-04 09:02 | 50.90497 | 3.36087 | 22603 ft | 446 kts | 30° |
| 2026-05-04 09:02 | 51.01039 | 3.45791 | 21048 ft | 430 kts | 30° |
| 2026-05-04 09:02 | 51.11153 | 3.55249 | 19553 ft | 415 kts | 30° |
| 2026-05-04 09:02 | 51.20898 | 3.64520 | 18154 ft | 399 kts | 30° |
| 2026-05-04 09:03 | 51.30357 | 3.73591 | 16701 ft | 394 kts | 30° |
| 2026-05-04 09:03 | 51.39676 | 3.82495 | 15047 ft | 386 kts | 30° |
| 2026-05-04 09:03 | 51.48846 | 3.91240 | 13351 ft | 379 kts | 30° |
| 2026-05-04 09:03 | 51.51582 | 3.93852 | 12879 ft | 376 kts | 30° |
| 2026-05-04 09:04 | 51.53819 | 3.96003 | 12526 ft | 373 kts | 30° |
| 2026-05-04 09:04 | 51.56010 | 3.98113 | 12182 ft | 371 kts | 30° |
| 2026-05-04 09:04 | 51.58216 | 4.00240 | 11807 ft | 368 kts | 30° |
| 2026-05-04 09:04 | 51.60404 | 4.02355 | 11412 ft | 366 kts | 30° |
| 2026-05-04 09:05 | 51.62580 | 4.04461 | 11020 ft | 364 kts | 30° |
| 2026-05-04 09:05 | 51.64742 | 4.06553 | 10648 ft | 361 kts | 30° |
| 2026-05-04 09:05 | 51.66889 | 4.08635 | 10258 ft | 359 kts | 30° |
| 2026-05-04 09:05 | 51.69053 | 4.10736 | 10010 ft | 351 kts | 30° |
| 2026-05-04 09:06 | 51.75155 | 4.16866 | 9973 ft | 308 kts | 32° |
| 2026-05-04 09:07 | 51.98045 | 4.40794 | 10016 ft | 370 kts | 30° |
| 2026-05-04 09:08 | 52.00261 | 4.42757 | 9993 ft | 356 kts | 24° |
| 2026-05-04 09:08 | 52.02475 | 4.44392 | 9993 ft | 343 kts | 22° |
| 2026-05-04 09:08 | 52.08082 | 4.48380 | 9964 ft | 312 kts | 22° |
| 2026-05-04 09:08 | 52.11364 | 4.50725 | 9903 ft | 297 kts | 22° |
| 2026-05-04 09:09 | 52.13255 | 4.52078 | 9505 ft | 293 kts | 22° |
| 2026-05-04 09:09 | 52.15074 | 4.53387 | 9240 ft | 278 kts | 24° |
| 2026-05-04 09:09 | 52.16643 | 4.55073 | 8962 ft | 263 kts | 41° |
| 2026-05-04 09:09 | 52.17913 | 4.57074 | 8814 ft | 247 kts | 45° |
| 2026-05-04 09:10 | 52.19081 | 4.59028 | 8597 ft | 234 kts | 45° |
| 2026-05-04 09:10 | 52.20262 | 4.61019 | 7398 ft | 260 kts | 45° |
| 2026-05-04 09:10 | 52.21903 | 4.62321 | 6142 ft | 277 kts | 0° |
| 2026-05-04 09:10 | 52.23678 | 4.61429 | 5462 ft | 268 kts | 323° |
| 2026-05-04 09:11 | 52.24757 | 4.59042 | 4787 ft | 262 kts | 288° |
| 2026-05-04 09:11 | 52.24820 | 4.56135 | 4100 ft | 257 kts | 255° |
| 2026-05-04 09:11 | 52.23935 | 4.53687 | 3490 ft | 251 kts | 224° |
| 2026-05-04 09:11 | 52.22434 | 4.52458 | 3140 ft | 232 kts | 177° |
| 2026-05-04 09:12 | 52.21274 | 4.53791 | 2748 ft | 217 kts | 104° |
| 2026-05-04 09:12 | 52.21025 | 4.56073 | 2761 ft | 195 kts | 98° |
| 2026-05-04 09:14 | 52.25784 | 4.66648 | 1875 ft | 170 kts | 46° |
| 2026-05-04 09:14 | 52.26635 | 4.68070 | 1354 ft | 179 kts | 46° |
| 2026-05-04 09:14 | 52.27436 | 4.69673 | 827 ft | 188 kts | 51° |
| 2026-05-04 09:14 | 52.28138 | 4.71579 | 366 ft | 204 kts | 63° |
| 2026-05-04 09:15 | 52.28866 | 4.73607 | 34 ft | 209 kts | 59° |
| 2026-05-04 09:15 | 52.29513 | 4.75289 | 1 ft | 118 kts | 58° |
| 2026-05-04 09:15 | 52.29835 | 4.76132 | -3 ft | 67 kts | 58° |
| 2026-05-04 09:15 | 52.30055 | 4.76559 | 1 ft | 42 kts | 30° |
| 2026-05-04 09:17 | 52.30980 | 4.77617 | 1 ft | 17 kts | 2° |
| 2026-05-04 09:18 | 52.31118 | 4.77618 | 1 ft | 19 kts | 343° |
| 2026-05-04 09:18 | 52.31136 | 4.77528 | 1 ft | 9 kts | 236° |
| 2026-05-04 09:18 | 52.31082 | 4.77434 | 1 ft | 15 kts | 250° |
| 2026-05-04 09:18 | 52.31080 | 4.77238 | 1 ft | 16 kts | 280° |
| 2026-05-04 09:19 | 52.31109 | 4.77199 | 1 ft | 6 kts | 344° |
| 2026-05-04 09:19 | 52.31148 | 4.77198 | 1 ft | 0 kts | 1° |